Time;durP1;ratioP1;P1;durP2;ratioP2;P2;SDS_P1;SDS_P2;PMS_P1;PMS_P2;Temp;Humidity;BMP_temperature;BMP_pressure;BME280_temperature;BME280_humidity;BME280_pressure;Samples;Min_cycle;Max_cycle;Signal;HPM_P1;HPM_P2
2022/01/18 00:00:24;;;;;;;;;;;;;;;;;;4998121;28;19976;-26
2022/01/18 00:02:50;;;;;;;;;;;;;;;;;;4997827;28;20308;-26
2022/01/18 00:05:18;;;;;;;;;;;;;;;;;;4997723;28;19914;-26
2022/01/18 00:07:44;;;;;;;;;;;;;;;;;;4997607;28;19909;-26
2022/01/18 00:10:11;;;;;;;;;;;;;;;;;;4996709;28;20341;-26
2022/01/18 00:15:31;;;;;;;;;;;;;;;;;;4997570;28;20281;-25
2022/01/18 00:23:05;;;;;;;;;;;;;;;;;;4997466;28;19936;-25
2022/01/18 00:25:33;;;;;;;;;;;;;;;;;;4997568;28;20357;-25
2022/01/18 00:28:00;;;;;;;;;;;;;;;;;;4997345;28;19918;-25
2022/01/18 00:33:20;;;;;;;;;;;;;;;;;;4997298;28;19964;-25
2022/01/18 00:35:51;;;;;;;;;;;;;;;;;;4997180;28;19914;-25
2022/01/18 00:38:33;;;;;;;;;;;;;;;;;;4997347;28;20253;-25
2022/01/18 00:40:59;;;;;;;;;;;;;;;;;;4997375;28;19924;-25
2022/01/18 00:43:25;;;;;;;;;;;;;;;;;;4997282;28;20260;-25
2022/01/18 00:45:51;;;;;;;;;;;;;;;;;;4997227;28;19921;-25
2022/01/18 00:48:20;;;;;;;;;;;;;;;;;;4995864;28;19910;-25
2022/01/18 00:50:46;;;;;;;;;;;;;;;;;;4996883;28;19918;-25
2022/01/18 00:53:15;;;;;;;;;;;;;;;;;;4996747;28;20356;-25
2022/01/18 00:55:53;;;;;;;;;;;;;;;;;;4997083;28;19917;-26
2022/01/18 00:58:19;;;;;;;;;;;;;;;;;;4996429;28;20056;-25
2022/01/18 01:00:45;;;;;;;;;;;;;;;;;;4996950;28;19949;-25
2022/01/18 01:03:14;;;;;;;;;;;;;;;;;;4996332;28;20415;-25
2022/01/18 01:05:40;;;;;;;;;;;;;;;;;;4997104;28;19910;-26
2022/01/18 01:08:06;;;;;;;;;;;;;;;;;;4996504;28;20284;-25
2022/01/18 01:10:32;;;;;;;;;;;;;;;;;;4996791;28;20272;-25
2022/01/18 01:12:58;;;;;;;;;;;;;;;;;;4996444;28;19914;-25
2022/01/18 01:15:26;;;;;;;;;;;;;;;;;;4996677;28;20296;-25
2022/01/18 01:18:10;;;;;;;;;;;;;;;;;;4996361;28;19914;-25
2022/01/18 01:34:38;;;;;;;;;;;;;;;;;;4996423;28;20063;-25
2022/01/18 01:42:53;;;;;;;;;;;;;;;;;;4996017;28;19929;-25
2022/01/18 01:45:15;;;;;;;;;;;;;;;;;;4995803;28;20242;-25
2022/01/18 01:47:41;;;;;;;;;;;;;;;;;;4995792;28;20363;-25
2022/01/18 01:50:08;;;;;;;;;;;;;;;;;;4996498;28;19914;-26
2022/01/18 01:52:34;;;;;;;;;;;;;;;;;;4995992;28;20093;-26
2022/01/18 01:55:00;;;;;;;;;;;;;;;;;;4995725;28;19921;-26
2022/01/18 01:57:26;;;;;;;;;;;;;;;;;;4995639;28;19914;-26
2022/01/18 01:59:52;;;;;;;;;;;;;;;;;;4995510;28;19926;-26
2022/01/18 02:02:19;;;;;;;;;;;;;;;;;;4995682;28;19996;-26
2022/01/18 02:04:45;;;;;;;;;;;;;;;;;;4995798;28;19957;-26
2022/01/18 02:07:11;;;;;;;;;;;;;;;;;;4995543;28;19910;-26
2022/01/18 02:09:37;;;;;;;;;;;;;;;;;;4995458;28;19921;-26
2022/01/18 02:12:03;;;;;;;;;;;;;;;;;;4995667;28;19949;-26
2022/01/18 02:14:31;;;;;;;;;;;;;;;;;;4994788;28;20009;-26
2022/01/18 02:22:26;;;;;;;;;;;;;;;;;;4995420;28;19920;-26
2022/01/18 02:24:53;;;;;;;;;;;;;;;;;;4995568;28;19972;-26
2022/01/18 02:27:19;;;;;;;;;;;;;;;;;;4995407;28;20004;-26
2022/01/18 02:29:45;;;;;;;;;;;;;;;;;;4995495;28;19921;-26
2022/01/18 02:32:11;;;;;;;;;;;;;;;;;;4995166;28;19914;-26
2022/01/18 02:34:37;;;;;;;;;;;;;;;;;;4995149;28;20302;-26
2022/01/18 02:37:04;;;;;;;;;;;;;;;;;;4995288;28;19916;-26
2022/01/18 02:39:30;;;;;;;;;;;;;;;;;;4994840;28;19914;-26
2022/01/18 02:41:56;;;;;;;;;;;;;;;;;;4995391;28;20049;-26
2022/01/18 02:44:22;;;;;;;;;;;;;;;;;;4995101;28;20004;-26
2022/01/18 02:46:48;;;;;;;;;;;;;;;;;;4995198;28;19976;-26
2022/01/18 02:49:14;;;;;;;;;;;;;;;;;;4995145;28;19910;-26
2022/01/18 02:51:40;;;;;;;;;;;;;;;;;;4995047;28;19924;-26
2022/01/18 02:54:06;;;;;;;;;;;;;;;;;;4994946;28;20012;-26
2022/01/18 02:56:32;;;;;;;;;;;;;;;;;;4995086;28;19913;-26
2022/01/18 02:59:05;;;;;;;;;;;;;;;;;;4994671;28;19921;-26
2022/01/18 03:04:16;;;;;;;;;;;;;;;;;;4995339;28;19973;-26
2022/01/18 03:06:42;;;;;;;;;;;;;;;;;;4995192;28;19917;-27
2022/01/18 03:09:08;;;;;;;;;;;;;;;;;;4993874;28;19916;-26
2022/01/18 03:11:34;;;;;;;;;;;;;;;;;;4994867;28;20269;-27
2022/01/18 03:14:00;;;;;;;;;;;;;;;;;;4993831;28;19914;-26
2022/01/18 03:16:26;;;;;;;;;;;;;;;;;;4994852;28;20337;-26
2022/01/18 03:18:52;;;;;;;;;;;;;;;;;;4994890;28;19973;-26
2022/01/18 03:21:19;;;;;;;;;;;;;;;;;;4993818;28;19914;-26
2022/01/18 03:23:51;;;;;;;;;;;;;;;;;;4994795;28;20252;-31
2022/01/18 03:26:18;;;;;;;;;;;;;;;;;;4996597;28;20044;-26
2022/01/18 03:28:44;;;;;;;;;;;;;;;;;;4997436;28;19925;-26
2022/01/18 03:31:10;;;;;;;;;;;;;;;;;;4998367;28;19918;-26
2022/01/18 03:33:36;;;;;;;;;;;;;;;;;;4998549;28;19914;-26
2022/01/18 03:36:02;;;;;;;;;;;;;;;;;;4998241;28;19924;-26
2022/01/18 03:38:31;;;;;;;;;;;;;;;;;;4998541;28;19921;-26
2022/01/18 03:40:57;;;;;;;;;;;;;;;;;;4997886;28;19986;-26
2022/01/18 03:43:23;;;;;;;;;;;;;;;;;;4998450;28;20284;-26
2022/01/18 03:45:51;;;;;;;;;;;;;;;;;;4997128;28;19925;-26
2022/01/18 03:48:26;;;;;;;;;;;;;;;;;;4998279;28;19910;-26
2022/01/18 03:50:52;;;;;;;;;;;;;;;;;;4998095;28;19917;-26
2022/01/18 03:53:20;;;;;;;;;;;;;;;;;;4998000;28;19914;-26
2022/01/18 03:55:46;;;;;;;;;;;;;;;;;;4998012;28;19913;-26
2022/01/18 03:58:12;;;;;;;;;;;;;;;;;;4997669;28;19929;-26
2022/01/18 04:00:38;;;;;;;;;;;;;;;;;;4997860;28;19937;-26
2022/01/18 04:03:04;;;;;;;;;;;;;;;;;;4996804;28;19913;-26
2022/01/18 04:05:30;;;;;;;;;;;;;;;;;;4997787;28;19925;-26
2022/01/18 04:07:56;;;;;;;;;;;;;;;;;;4997696;28;19920;-26
2022/01/18 04:10:22;;;;;;;;;;;;;;;;;;4997690;28;19917;-26
2022/01/18 04:12:48;;;;;;;;;;;;;;;;;;4997901;28;19940;-26
2022/01/18 04:15:14;;;;;;;;;;;;;;;;;;4997631;28;19914;-26
2022/01/18 04:28:34;;;;;;;;;;;;;;;;;;4997459;28;20364;-26
2022/01/18 04:31:00;;;;;;;;;;;;;;;;;;4997692;28;19944;-26
2022/01/18 04:33:26;;;;;;;;;;;;;;;;;;4997221;28;20345;-26
2022/01/18 04:35:52;;;;;;;;;;;;;;;;;;4996909;28;20318;-26
2022/01/18 04:38:18;;;;;;;;;;;;;;;;;;4995383;28;20260;-26
2022/01/18 04:40:46;;;;;;;;;;;;;;;;;;4995874;28;19914;-26
2022/01/18 04:48:33;;;;;;;;;;;;;;;;;;4996862;28;20016;-26
2022/01/18 04:51:00;;;;;;;;;;;;;;;;;;4996915;28;19957;-27
2022/01/18 04:53:27;;;;;;;;;;;;;;;;;;4997008;28;20345;-26
2022/01/18 04:55:56;;;;;;;;;;;;;;;;;;4996758;28;19910;-27
2022/01/18 04:58:22;;;;;;;;;;;;;;;;;;4996278;28;19918;-26
2022/01/18 05:00:48;;;;;;;;;;;;;;;;;;4996245;28;20257;-26
2022/01/18 05:03:14;;;;;;;;;;;;;;;;;;4996257;28;19914;-27
2022/01/18 05:05:40;;;;;;;;;;;;;;;;;;4996287;28;19921;-26
2022/01/18 05:08:12;;;;;;;;;;;;;;;;;;4996188;28;19953;-26
2022/01/18 05:10:38;;;;;;;;;;;;;;;;;;4996448;28;19949;-26
2022/01/18 05:13:14;;;;;;;;;;;;;;;;;;4996201;28;19976;-26
2022/01/18 05:16:00;;;;;;;;;;;;;;;;;;4996039;28;19952;-26
2022/01/18 05:23:36;;;;;;;;;;;;;;;;;;4996342;28;19914;-26
2022/01/18 05:26:02;;;;;;;;;;;;;;;;;;4996330;28;19918;-26
2022/01/18 05:28:28;;;;;;;;;;;;;;;;;;4996449;28;19972;-26
2022/01/18 05:30:54;;;;;;;;;;;;;;;;;;4996109;28;20005;-25
2022/01/18 05:33:22;;;;;;;;;;;;;;;;;;4996286;28;20012;-26
2022/01/18 05:35:48;;;;;;;;;;;;;;;;;;4995929;28;19918;-26
2022/01/18 05:38:14;;;;;;;;;;;;;;;;;;4995932;28;19914;-26
2022/01/18 05:40:40;;;;;;;;;;;;;;;;;;4996018;28;19913;-26
2022/01/18 05:43:06;;;;;;;;;;;;;;;;;;4996059;28;19992;-26
2022/01/18 05:45:32;;;;;;;;;;;;;;;;;;4995594;28;19968;-27
2022/01/18 05:47:58;;;;;;;;;;;;;;;;;;4995003;28;19936;-27
2022/01/18 05:50:24;;;;;;;;;;;;;;;;;;4995031;28;19913;-26
2022/01/18 05:52:50;;;;;;;;;;;;;;;;;;4995572;28;19914;-25
2022/01/18 05:55:17;;;;;;;;;;;;;;;;;;4995812;28;20282;-26
2022/01/18 05:57:43;;;;;;;;;;;;;;;;;;4994953;28;19918;-26
2022/01/18 06:00:11;;;;;;;;;;;;;;;;;;4995045;28;20017;-26
2022/01/18 06:02:44;;;;;;;;;;;;;;;;;;4995258;28;19925;-26
2022/01/18 06:07:55;;;;;;;;;;;;;;;;;;4995583;28;20304;-25
2022/01/18 06:10:21;;;;;;;;;;;;;;;;;;4995429;28;19933;-25
2022/01/18 06:12:47;;;;;;;;;;;;;;;;;;4995431;28;20337;-26
2022/01/18 06:15:13;;;;;;;;;;;;;;;;;;4994097;28;19914;-27
2022/01/18 06:17:39;;;;;;;;;;;;;;;;;;4994231;28;20067;-26
2022/01/18 06:20:05;;;;;;;;;;;;;;;;;;4994248;28;20367;-25
2022/01/18 06:22:31;;;;;;;;;;;;;;;;;;4995339;28;19910;-26
2022/01/18 06:24:57;;;;;;;;;;;;;;;;;;4994012;28;20032;-25
2022/01/18 06:27:23;;;;;;;;;;;;;;;;;;4993995;28;19945;-25
2022/01/18 06:29:49;;;;;;;;;;;;;;;;;;4994919;28;20120;-26
2022/01/18 06:32:15;;;;;;;;;;;;;;;;;;4994068;28;20048;-27
2022/01/18 06:34:41;;;;;;;;;;;;;;;;;;4995287;28;19917;-27
2022/01/18 06:37:07;;;;;;;;;;;;;;;;;;4994913;28;19909;-26
2022/01/18 06:39:33;;;;;;;;;;;;;;;;;;4993966;28;20008;-27
2022/01/18 06:41:59;;;;;;;;;;;;;;;;;;4995014;28;19909;-26
2022/01/18 06:44:25;;;;;;;;;;;;;;;;;;4995159;28;19933;-26
2022/01/18 06:46:51;;;;;;;;;;;;;;;;;;4994735;28;19940;-26
2022/01/18 06:49:17;;;;;;;;;;;;;;;;;;4994992;28;19914;-27
2022/01/18 06:51:44;;;;;;;;;;;;;;;;;;4994943;28;19945;-26
2022/01/18 06:54:14;;;;;;;;;;;;;;;;;;4993707;28;19928;-27
2022/01/18 06:56:44;;;;;;;;;;;;;;;;;;4993713;28;20261;-25
2022/01/18 06:59:10;;;;;;;;;;;;;;;;;;4993226;28;19928;-26
2022/01/18 07:01:36;;;;;;;;;;;;;;;;;;4998297;28;19972;-26
2022/01/18 07:04:03;;;;;;;;;;;;;;;;;;4998574;28;19925;-27
2022/01/18 07:06:29;;;;;;;;;;;;;;;;;;4998580;28;19945;-27
2022/01/18 07:08:55;;;;;;;;;;;;;;;;;;4998513;28;19914;-26
2022/01/18 07:11:21;;;;;;;;;;;;;;;;;;4998365;28;19913;-26
2022/01/18 07:13:47;;;;;;;;;;;;;;;;;;4997766;28;20012;-27
2022/01/18 07:16:13;;;;;;;;;;;;;;;;;;4997847;28;20372;-27
2022/01/18 07:18:39;;;;;;;;;;;;;;;;;;4998000;28;19913;-26
2022/01/18 07:21:05;;;;;;;;;;;;;;;;;;4998578;28;20230;-27
2022/01/18 07:23:31;;;;;;;;;;;;;;;;;;4997679;28;20008;-26
2022/01/18 07:25:57;;;;;;;;;;;;;;;;;;4998051;28;20265;-24
2022/01/18 07:28:24;;;;;;;;;;;;;;;;;;4997820;28;19988;-26
2022/01/18 07:30:50;;;;;;;;;;;;;;;;;;4997593;28;19924;-25
2022/01/18 07:33:16;;;;;;;;;;;;;;;;;;4997503;28;19928;-29
2022/01/18 07:35:42;;;;;;;;;;;;;;;;;;4996664;28;19914;-25
2022/01/18 07:38:12;;;;;;;;;;;;;;;;;;4997457;28;19921;-26
2022/01/18 07:40:38;;;;;;;;;;;;;;;;;;4997549;28;19909;-26
2022/01/18 07:43:04;;;;;;;;;;;;;;;;;;4997952;28;20389;-26
2022/01/18 07:45:31;;;;;;;;;;;;;;;;;;4997011;28;19913;-26
2022/01/18 07:47:57;;;;;;;;;;;;;;;;;;4997803;28;19910;-26
2022/01/18 07:50:23;;;;;;;;;;;;;;;;;;4997647;28;19918;-26
2022/01/18 07:52:49;;;;;;;;;;;;;;;;;;4997691;28;19917;-26
2022/01/18 07:55:15;;;;;;;;;;;;;;;;;;4997648;28;20293;-26
2022/01/18 07:57:42;;;;;;;;;;;;;;;;;;4997893;28;19961;-26
2022/01/18 08:00:09;;;;;;;;;;;;;;;;;;4996513;28;19926;-26
2022/01/18 08:02:36;;;;;;;;;;;;;;;;;;4997978;28;19913;-26
2022/01/18 08:05:02;;;;;;;;;;;;;;;;;;4997644;28;19928;-25
2022/01/18 08:07:28;;;;;;;;;;;;;;;;;;4997434;28;19997;-26
2022/01/18 08:09:54;;;;;;;;;;;;;;;;;;4996422;28;19924;-25
2022/01/18 08:12:23;;;;;;;;;;;;;;;;;;4996520;28;19914;-24
2022/01/18 08:14:54;;;;;;;;;;;;;;;;;;4997072;28;20293;-25
2022/01/18 08:17:22;;;;;;;;;;;;;;;;;;4997315;28;19952;-25
2022/01/18 08:19:48;;;;;;;;;;;;;;;;;;4997047;28;19975;-25
2022/01/18 08:22:14;;;;;;;;;;;;;;;;;;4997100;28;19969;-25
2022/01/18 08:24:40;;;;;;;;;;;;;;;;;;4997295;28;19960;-25
2022/01/18 08:27:06;;;;;;;;;;;;;;;;;;4997323;28;19976;-25
2022/01/18 08:29:33;;;;;;;;;;;;;;;;;;4997366;28;20267;-25
2022/01/18 08:31:59;;;;;;;;;;;;;;;;;;4997226;28;20202;-25
2022/01/18 08:34:25;;;;;;;;;;;;;;;;;;4996830;28;19918;-25
2022/01/18 08:36:52;;;;;;;;;;;;;;;;;;4996690;28;19976;-25
2022/01/18 08:39:18;;;;;;;;;;;;;;;;;;4997160;28;20245;-25
2022/01/18 08:41:44;;;;;;;;;;;;;;;;;;4996778;28;19924;-25
2022/01/18 08:44:10;;;;;;;;;;;;;;;;;;4996911;28;20245;-25
2022/01/18 08:46:36;;;;;;;;;;;;;;;;;;4997151;28;19964;-25
2022/01/18 08:49:02;;;;;;;;;;;;;;;;;;4996855;28;19945;-25
2022/01/18 08:51:28;;;;;;;;;;;;;;;;;;4996778;28;20257;-32
2022/01/18 08:53:54;;;;;;;;;;;;;;;;;;4996431;28;19914;-25
2022/01/18 08:56:20;;;;;;;;;;;;;;;;;;4996668;28;20373;-25
2022/01/18 08:58:46;;;;;;;;;;;;;;;;;;4996634;28;19922;-26
2022/01/18 09:01:13;;;;;;;;;;;;;;;;;;4995712;28;20260;-26
2022/01/18 09:03:39;;;;;;;;;;;;;;;;;;4996729;28;19913;-26
2022/01/18 09:06:06;;;;;;;;;;;;;;;;;;4996376;28;20319;-26
2022/01/18 09:08:34;;;;;;;;;;;;;;;;;;4996211;28;20029;-26
2022/01/18 09:11:00;;;;;;;;;;;;;;;;;;4996345;28;19995;-26
2022/01/18 09:13:28;;;;;;;;;;;;;;;;;;4996258;28;19925;-26
2022/01/18 09:15:54;;;;;;;;;;;;;;;;;;4995941;28;19910;-26
2022/01/18 09:18:21;;;;;;;;;;;;;;;;;;4996095;28;19914;-26
2022/01/18 09:20:47;;;;;;;;;;;;;;;;;;4996252;28;20286;-26
2022/01/18 09:23:13;;;;;;;;;;;;;;;;;;4995752;28;20257;-26
2022/01/18 09:25:39;;;;;;;;;;;;;;;;;;4995829;28;19913;-27
2022/01/18 09:28:06;;;;;;;;;;;;;;;;;;4996076;28;19916;-27
2022/01/18 09:30:33;;;;;;;;;;;;;;;;;;4995840;28;19914;-26
2022/01/18 09:32:59;;;;;;;;;;;;;;;;;;4996025;28;19918;-26
2022/01/18 09:35:25;;;;;;;;;;;;;;;;;;4995777;28;19914;-27
2022/01/18 09:37:52;;;;;;;;;;;;;;;;;;4995575;28;19914;-27
2022/01/18 09:40:19;;;;;;;;;;;;;;;;;;4995762;28;19916;-26
2022/01/18 09:42:46;;;;;;;;;;;;;;;;;;4994409;28;20396;-26
2022/01/18 09:45:12;;;;;;;;;;;;;;;;;;4995921;28;19995;-26
2022/01/18 09:47:38;;;;;;;;;;;;;;;;;;4994578;28;19914;-26
2022/01/18 09:50:04;;;;;;;;;;;;;;;;;;4994642;28;19914;-26
2022/01/18 09:52:31;;;;;;;;;;;;;;;;;;4994226;28;19918;-26
2022/01/18 09:54:57;;;;;;;;;;;;;;;;;;4995605;28;19976;-25
2022/01/18 09:57:23;;;;;;;;;;;;;;;;;;4994997;28;19921;-26
2022/01/18 09:59:49;;;;;;;;;;;;;;;;;;4994609;28;20337;-26
2022/01/18 10:02:15;;;;;;;;;;;;;;;;;;4994973;28;19968;-27
2022/01/18 10:04:42;;;;;;;;;;;;;;;;;;4994773;28;19910;-24
2022/01/18 10:07:08;;;;;;;;;;;;;;;;;;4993585;28;19928;-27
2022/01/18 10:09:34;;;;;;;;;;;;;;;;;;4994585;28;19959;-27
2022/01/18 10:12:01;;;;;;;;;;;;;;;;;;4994645;28;20012;-27
2022/01/18 10:14:27;;;;;;;;;;;;;;;;;;4994400;28;19960;-26
2022/01/18 10:16:54;;;;;;;;;;;;;;;;;;4994527;28;19910;-31
2022/01/18 10:19:20;;;;;;;;;;;;;;;;;;4994939;28;20009;-27
2022/01/18 10:21:49;;;;;;;;;;;;;;;;;;4994663;28;20261;-26
2022/01/18 10:24:16;;;;;;;;;;;;;;;;;;4994688;28;19944;-27
2022/01/18 10:26:42;;;;;;;;;;;;;;;;;;4994421;28;20230;-27
2022/01/18 10:29:09;;;;;;;;;;;;;;;;;;4994408;28;19910;-27
2022/01/18 10:34:11;;;;;;;;;;;;;;;;;;4994003;28;19960;-26
2022/01/18 10:36:37;;;;;;;;;;;;;;;;;;4994358;28;19914;-26
2022/01/18 10:39:05;;;;;;;;;;;;;;;;;;4994559;28;20337;-26
2022/01/18 10:41:33;;;;;;;;;;;;;;;;;;4994633;28;19910;-26
2022/01/18 10:43:59;;;;;;;;;;;;;;;;;;4995011;28;19925;-26
2022/01/18 10:46:30;;;;;;;;;;;;;;;;;;4994622;28;19937;-26
2022/01/18 10:48:56;;;;;;;;;;;;;;;;;;4995483;28;19921;-26
2022/01/18 10:51:22;;;;;;;;;;;;;;;;;;4994686;28;20407;-26
2022/01/18 10:53:48;;;;;;;;;;;;;;;;;;4994713;28;19914;-26
2022/01/18 10:56:14;;;;;;;;;;;;;;;;;;4994836;28;19913;-26
2022/01/18 10:58:41;;;;;;;;;;;;;;;;;;4994267;28;19922;-26
2022/01/18 11:01:07;;;;;;;;;;;;;;;;;;4995075;28;19914;-26
2022/01/18 11:03:33;;;;;;;;;;;;;;;;;;4994537;28;20345;-26
2022/01/18 11:06:01;;;;;;;;;;;;;;;;;;4993405;28;20218;-26
2022/01/18 11:08:27;;;;;;;;;;;;;;;;;;4994501;28;20360;-26
2022/01/18 11:10:53;;;;;;;;;;;;;;;;;;4994594;28;19921;-26
2022/01/18 11:13:24;;;;;;;;;;;;;;;;;;4994586;28;19976;-26
2022/01/18 11:16:01;;;;;;;;;;;;;;;;;;4994719;28;19920;-26
2022/01/18 11:18:36;;;;;;;;;;;;;;;;;;4994233;28;20310;-27
2022/01/18 11:21:18;;;;;;;;;;;;;;;;;;;;;
2022/01/18 11:23:53;;;;;;;;;;;;;;;;;;4994160;28;19936;-26
2022/01/18 11:26:19;;;;;;;;;;;;;;;;;;4994426;28;19920;-27
2022/01/18 11:28:46;;;;;;;;;;;;;;;;;;4994272;28;19924;-27
2022/01/18 11:31:12;;;;;;;;;;;;;;;;;;4994357;28;19928;-27
2022/01/18 11:33:39;;;;;;;;;;;;;;;;;;4994389;28;20265;-27
2022/01/18 11:36:06;;;;;;;;;;;;;;;;;;4994276;28;19952;-27
2022/01/18 11:38:34;;;;;;;;;;;;;;;;;;4994736;28;19957;-27
2022/01/18 11:41:05;;;;;;;;;;;;;;;;;;4994263;28;20273;-27
2022/01/18 11:43:31;;;;;;;;;;;;;;;;;;4993205;28;19921;-27
2022/01/18 11:46:06;;;;;;;;;;;;;;;;;;4995158;28;19925;-27
2022/01/18 11:48:34;;;;;;;;;;;;;;;;;;4997225;28;19982;-27
2022/01/18 11:51:01;;;;;;;;;;;;;;;;;;4998151;28;20000;-27
2022/01/18 11:53:38;;;;;;;;;;;;;;;;;;4998159;28;20017;-27
2022/01/18 11:56:04;;;;;;;;;;;;;;;;;;4998058;28;20257;-26
2022/01/18 11:58:30;;;;;;;;;;;;;;;;;;4997498;28;20024;-26
2022/01/18 12:00:58;;;;;;;;;;;;;;;;;;4997626;28;19940;-26
2022/01/18 12:03:25;;;;;;;;;;;;;;;;;;4997738;28;19913;-26
2022/01/18 12:05:52;;;;;;;;;;;;;;;;;;4997334;28;19921;-26
2022/01/18 12:08:18;;;;;;;;;;;;;;;;;;4997148;28;19984;-26
2022/01/18 12:10:44;;;;;;;;;;;;;;;;;;4997269;28;19914;-26
2022/01/18 12:13:13;;;;;;;;;;;;;;;;;;4997444;28;20407;-26
2022/01/18 12:15:41;;;;;;;;;;;;;;;;;;4997053;28;19914;-26
2022/01/18 12:18:07;;;;;;;;;;;;;;;;;;4997119;28;19937;-25
2022/01/18 12:23:18;;;;;;;;;;;;;;;;;;4997337;28;19921;-27
2022/01/18 12:25:54;;;;;;;;;;;;;;;;;;4995818;28;19925;-27
2022/01/18 12:28:22;;;;;;;;;;;;;;;;;;4996642;28;19910;-27
2022/01/18 12:31:05;;;;;;;;;;;;;;;;;;4996839;28;20001;-28
2022/01/18 12:33:31;;;;;;;;;;;;;;;;;;4996752;28;19920;-28
2022/01/18 12:35:57;;;;;;;;;;;;;;;;;;4996842;28;20388;-26
2022/01/18 12:38:23;;;;;;;;;;;;;;;;;;4996549;28;19936;-26
2022/01/18 12:40:49;;;;;;;;;;;;;;;;;;4996902;28;19914;-26
2022/01/18 12:45:42;;;;;;;;;;;;;;;;;;4996851;28;19913;-27
2022/01/18 12:48:09;;;;;;;;;;;;;;;;;;4996809;28;19910;-27
2022/01/18 12:50:35;;;;;;;;;;;;;;;;;;4996869;28;19960;-27
2022/01/18 12:53:02;;;;;;;;;;;;;;;;;;4995784;28;20293;-27
2022/01/18 12:55:28;;;;;;;;;;;;;;;;;;4996777;28;19914;-26
2022/01/18 12:57:54;;;;;;;;;;;;;;;;;;4995990;28;20094;-26
2022/01/18 13:00:20;;;;;;;;;;;;;;;;;;4995710;28;19914;-26
2022/01/18 13:02:46;;;;;;;;;;;;;;;;;;4996998;28;19910;-26
2022/01/18 13:05:14;;;;;;;;;;;;;;;;;;4995793;28;19918;-26
2022/01/18 13:07:42;;;;;;;;;;;;;;;;;;4995834;28;19987;-26
2022/01/18 13:10:08;;;;;;;;;;;;;;;;;;4996926;28;19964;-26
2022/01/18 13:12:35;;;;;;;;;;;;;;;;;;4996469;28;20005;-27
2022/01/18 13:15:04;;;;;;;;;;;;;;;;;;4995535;28;19914;-26
2022/01/18 13:23:05;;;;;;;;;;;;;;;;;;4996218;28;20027;-24
2022/01/18 13:25:31;;;;;;;;;;;;;;;;;;4995177;28;19949;-25
2022/01/18 13:28:03;;;;;;;;;;;;;;;;;;4996041;28;20249;-24
2022/01/18 13:30:31;;;;;;;;;;;;;;;;;;4994963;28;20190;-25
2022/01/18 13:33:01;;;;;;;;;;;;;;;;;;4995916;28;20349;-27
2022/01/18 13:35:32;;;;;;;;;;;;;;;;;;4996039;28;19914;-26
2022/01/18 13:38:03;;;;;;;;;;;;;;;;;;4995687;28;19910;-25
2022/01/18 13:40:30;;;;;;;;;;;;;;;;;;4995758;28;19953;-26
2022/01/18 13:42:56;;;;;;;;;;;;;;;;;;4995727;28;19985;-26
2022/01/18 13:45:25;;;;;;;;;;;;;;;;;;4995956;28;19914;-26
2022/01/18 13:47:51;;;;;;;;;;;;;;;;;;4994931;28;20004;-26
2022/01/18 13:50:17;;;;;;;;;;;;;;;;;;4995759;28;19913;-26
2022/01/18 13:52:43;;;;;;;;;;;;;;;;;;4995702;28;19918;-25
2022/01/18 13:55:10;;;;;;;;;;;;;;;;;;4995389;28;19921;-25
2022/01/18 13:57:36;;;;;;;;;;;;;;;;;;4994992;28;19922;-25
2022/01/18 14:00:03;;;;;;;;;;;;;;;;;;4994579;28;19933;-25
2022/01/18 14:02:29;;;;;;;;;;;;;;;;;;4994657;28;20270;-26
2022/01/18 14:04:55;;;;;;;;;;;;;;;;;;4995317;28;19953;-25
2022/01/18 14:07:21;;;;;;;;;;;;;;;;;;4995524;28;19913;-25
2022/01/18 14:09:47;;;;;;;;;;;;;;;;;;4994701;28;19921;-25
2022/01/18 14:12:19;;;;;;;;;;;;;;;;;;4995562;28;20364;-25
2022/01/18 14:14:46;;;;;;;;;;;;;;;;;;4994482;28;20237;-25
2022/01/18 14:17:12;;;;;;;;;;;;;;;;;;4994291;28;19918;-26
2022/01/18 14:19:38;;;;;;;;;;;;;;;;;;4993404;28;19972;-26
2022/01/18 14:22:05;;;;;;;;;;;;;;;;;;4994856;28;19910;-26
2022/01/18 14:24:31;;;;;;;;;;;;;;;;;;4994828;28;19968;-26
2022/01/18 14:26:57;;;;;;;;;;;;;;;;;;4994838;28;19956;-27
2022/01/18 14:29:23;;;;;;;;;;;;;;;;;;4994681;28;19914;-26
2022/01/18 14:31:49;;;;;;;;;;;;;;;;;;4994469;28;20472;-26
2022/01/18 14:34:15;;;;;;;;;;;;;;;;;;4994620;28;19945;-26
2022/01/18 14:36:41;;;;;;;;;;;;;;;;;;4995168;28;20022;-26
2022/01/18 14:39:08;;;;;;;;;;;;;;;;;;4994537;28;20305;-25
2022/01/18 14:41:34;;;;;;;;;;;;;;;;;;4993326;28;20221;-26
2022/01/18 14:44:09;;;;;;;;;;;;;;;;;;4994462;28;19914;-26
2022/01/18 14:46:57;;;;;;;;;;;;;;;;;;4994400;28;19910;-24
2022/01/18 14:49:23;;;;;;;;;;;;;;;;;;4994273;28;20261;-25
2022/01/18 14:51:49;;;;;;;;;;;;;;;;;;4994401;28;20001;-25
2022/01/18 14:54:16;;;;;;;;;;;;;;;;;;4994374;28;19940;-25
2022/01/18 14:56:42;;;;;;;;;;;;;;;;;;4994394;28;19997;-25
2022/01/18 14:59:08;;;;;;;;;;;;;;;;;;4994213;28;20033;-25
2022/01/18 15:01:36;;;;;;;;;;;;;;;;;;4994192;28;19914;-26
2022/01/18 15:04:02;;;;;;;;;;;;;;;;;;4994255;28;20013;-25
2022/01/18 15:06:28;;;;;;;;;;;;;;;;;;4994396;28;19974;-25
2022/01/18 15:08:54;;;;;;;;;;;;;;;;;;4994202;28;19964;-25
2022/01/18 15:11:20;;;;;;;;;;;;;;;;;;4994146;28;19913;-25
2022/01/18 15:13:46;;;;;;;;;;;;;;;;;;4994530;28;19925;-25
2022/01/18 15:16:13;;;;;;;;;;;;;;;;;;4994396;28;19918;-25
2022/01/18 15:18:39;;;;;;;;;;;;;;;;;;4994003;28;19910;-25
2022/01/18 15:21:05;;;;;;;;;;;;;;;;;;4995458;28;19914;-25
2022/01/18 15:23:31;;;;;;;;;;;;;;;;;;4998514;28;19910;-25
2022/01/18 15:25:58;;;;;;;;;;;;;;;;;;4998346;28;19914;-25
2022/01/18 15:28:24;;;;;;;;;;;;;;;;;;4998241;28;20000;-25
2022/01/18 15:30:50;;;;;;;;;;;;;;;;;;4998491;28;19921;-25
2022/01/18 15:33:16;;;;;;;;;;;;;;;;;;4997963;28;19918;-25
2022/01/18 15:35:43;;;;;;;;;;;;;;;;;;4998156;28;19910;-25
2022/01/18 15:38:10;;;;;;;;;;;;;;;;;;4998036;28;20302;-25
2022/01/18 15:40:36;;;;;;;;;;;;;;;;;;4997845;28;19960;-25
2022/01/18 15:43:04;;;;;;;;;;;;;;;;;;4998173;28;19918;-25
2022/01/18 15:45:32;;;;;;;;;;;;;;;;;;4998030;28;19984;-25
2022/01/18 15:47:58;;;;;;;;;;;;;;;;;;4997927;28;20009;-26
2022/01/18 15:50:25;;;;;;;;;;;;;;;;;;4997910;28;19979;-25
2022/01/18 15:52:52;;;;;;;;;;;;;;;;;;4998020;28;19918;-26
2022/01/18 15:55:18;;;;;;;;;;;;;;;;;;4997303;28;19918;-27
2022/01/18 15:57:44;;;;;;;;;;;;;;;;;;4997021;28;19929;-27
2022/01/18 16:00:10;;;;;;;;;;;;;;;;;;4997063;28;20037;-27
2022/01/18 16:02:36;;;;;;;;;;;;;;;;;;4996766;28;19921;-27
2022/01/18 16:05:02;;;;;;;;;;;;;;;;;;4996688;28;20001;-27
2022/01/18 16:07:28;;;;;;;;;;;;;;;;;;4996789;28;19970;-27
2022/01/18 16:09:54;;;;;;;;;;;;;;;;;;4995595;28;19934;-27
2022/01/18 16:12:21;;;;;;;;;;;;;;;;;;4995694;28;19910;-27
2022/01/18 16:14:47;;;;;;;;;;;;;;;;;;4996892;28;20028;-27
2022/01/18 16:17:14;;;;;;;;;;;;;;;;;;4995652;28;19910;-27
2022/01/18 16:19:46;;;;;;;;;;;;;;;;;;4996626;28;20337;-26
2022/01/18 16:22:12;;;;;;;;;;;;;;;;;;4996932;28;19968;-28
2022/01/18 16:24:38;;;;;;;;;;;;;;;;;;4997093;28;20269;-26
2022/01/18 16:27:04;;;;;;;;;;;;;;;;;;4996114;28;19977;-26
2022/01/18 16:29:31;;;;;;;;;;;;;;;;;;4996237;28;19914;-26
2022/01/18 16:31:57;;;;;;;;;;;;;;;;;;4996959;28;19910;-26
2022/01/18 16:34:23;;;;;;;;;;;;;;;;;;4996667;28;20016;-25
2022/01/18 16:36:49;;;;;;;;;;;;;;;;;;4998262;28;19954;-25
2022/01/18 16:39:15;;;;;;;;;;;;;;;;;;4997037;28;19996;-25
2022/01/18 16:41:41;;;;;;;;;;;;;;;;;;4997077;28;19941;-25
2022/01/18 16:44:09;;;;;;;;;;;;;;;;;;4995994;28;19920;-27
2022/01/18 16:46:35;;;;;;;;;;;;;;;;;;4997140;28;20382;-27
2022/01/18 16:49:01;;;;;;;;;;;;;;;;;;4996697;28;19914;-27
2022/01/18 16:51:27;;;;;;;;;;;;;;;;;;4996854;28;19945;-27
2022/01/18 16:53:53;;;;;;;;;;;;;;;;;;4997235;28;19952;-27
2022/01/18 16:56:19;;;;;;;;;;;;;;;;;;4996737;28;19910;-27
2022/01/18 16:58:50;;;;;;;;;;;;;;;;;;4995700;28;20013;-27
2022/01/18 17:01:16;;;;;;;;;;;;;;;;;;4997133;28;19968;-27
2022/01/18 17:03:42;;;;;;;;;;;;;;;;;;4996704;28;19968;-26
2022/01/18 17:06:08;;;;;;;;;;;;;;;;;;4996918;28;19921;-27
2022/01/18 17:08:35;;;;;;;;;;;;;;;;;;4996415;28;19914;-27
2022/01/18 17:11:01;;;;;;;;;;;;;;;;;;4996589;28;19921;-27
2022/01/18 17:13:27;;;;;;;;;;;;;;;;;;4996425;28;20043;-26
2022/01/18 17:15:53;;;;;;;;;;;;;;;;;;4996608;28;20004;-27
2022/01/18 17:18:20;;;;;;;;;;;;;;;;;;4996270;28;20011;-26
2022/01/18 17:20:46;;;;;;;;;;;;;;;;;;4996496;28;19910;-29
2022/01/18 17:23:12;;;;;;;;;;;;;;;;;;4996404;28;20218;-26
2022/01/18 17:25:38;;;;;;;;;;;;;;;;;;4996351;28;19925;-26
2022/01/18 17:28:06;;;;;;;;;;;;;;;;;;4994988;28;20364;-26
2022/01/18 17:30:33;;;;;;;;;;;;;;;;;;4996313;28;19937;-26
2022/01/18 17:32:59;;;;;;;;;;;;;;;;;;4996015;28;19921;-27
2022/01/18 17:35:24;;;;;;;;;;;;;;;;;;4994836;28;19914;-27
2022/01/18 17:37:50;;;;;;;;;;;;;;;;;;4995907;28;19937;-27
2022/01/18 17:40:17;;;;;;;;;;;;;;;;;;4996028;28;19924;-27
2022/01/18 17:42:44;;;;;;;;;;;;;;;;;;4995988;28;19925;-26
2022/01/18 17:45:10;;;;;;;;;;;;;;;;;;4995542;28;19951;-27
2022/01/18 17:47:36;;;;;;;;;;;;;;;;;;4995836;28;19910;-27
2022/01/18 17:50:02;;;;;;;;;;;;;;;;;;4996044;28;20280;-27
2022/01/18 17:52:28;;;;;;;;;;;;;;;;;;4996385;28;19910;-27
2022/01/18 17:54:54;;;;;;;;;;;;;;;;;;4995502;28;19926;-26
2022/01/18 17:57:20;;;;;;;;;;;;;;;;;;4994647;28;19913;-26
2022/01/18 17:59:46;;;;;;;;;;;;;;;;;;4994742;28;19922;-25